Time;durP1;ratioP1;P1;durP2;ratioP2;P2;SDS_P1;SDS_P2;PMS_P1;PMS_P2;Temp;Humidity;BMP_temperature;BMP_pressure;BME280_temperature;BME280_humidity;BME280_pressure;Samples;Min_cycle;Max_cycle;Signal;HPM_P1;HPM_P2
2023/06/08 00:26:49;;;;;;;8.18;7.00;;;;;;;;;;6197025;23;20028;-83
2023/06/08 01:00:58;;;;;;;;;;;;;;;;;;;;;
2023/06/08 01:03:29;;;;;;;11.90;6.80;;;;;;;;;;6193752;23;20033;-92
2023/06/08 01:05:57;;;;;;;8.57;6.47;;;;;;;;;;6191274;23;20008;-89
2023/06/08 01:08:32;;;;;;;7.38;6.57;;;;;;;;;;6170589;23;20009;-89
2023/06/08 01:11:06;;;;;;;7.32;6.47;;;;;;;;;;6197173;23;20015;-87
2023/06/08 01:13:53;;;;;;;8.23;6.53;;;;;;;;;;6198393;23;20033;-88
2023/06/08 01:16:19;;;;;;;7.50;6.45;;;;;;;;;;6190233;23;20019;-87
2023/06/08 01:18:47;;;;;;;10.25;7.22;;;;;;;;;;6189828;23;20096;-89
2023/06/08 01:21:49;;;;;;;11.15;8.10;;;18.00;99.90;;;;;;6186486;23;20016;-89
2023/06/08 01:24:20;;;;;;;8.38;6.95;;;;;;;;;;6186775;23;20016;-89
2023/06/08 01:26:49;;;;;;;8.00;6.90;;;;;;;;;;6185323;23;20399;-90
2023/06/08 01:29:15;;;;;;;11.30;7.70;;;;;;;;;;6187481;23;20410;-89
2023/06/08 01:31:42;;;;;;;9.05;7.13;;;;;;;;;;6186649;23;20012;-92
2023/06/08 01:34:13;;;;;;;11.65;7.45;;;17.80;99.90;;;;;;6193220;23;20016;-89
2023/06/08 01:37:08;;;;;;;11.73;7.32;;;;;;;;;;6178200;23;20017;-87
2023/06/08 01:39:34;;;;;;;8.63;6.90;;;;;;;;;;6173683;23;20001;-90
2023/06/08 01:42:05;;;;;;;9.30;7.68;;;;;;;;;;6196031;23;20059;-88
2023/06/08 01:44:35;;;;;;;12.00;7.85;;;;;;;;;;6200226;23;20005;-86
2023/06/08 01:47:02;;;;;;;8.63;7.20;;;;;;;;;;6187108;23;20429;-90
2023/06/08 01:49:30;;;;;;;10.27;7.38;;;17.70;99.90;;;;;;6182399;23;20011;-88
2023/06/08 01:51:57;;;;;;;8.98;7.20;;;17.70;99.90;;;;;;6182840;23;20001;-88
2023/06/08 01:54:23;;;;;;;9.40;7.72;;;;;;;;;;6184972;23;20009;-88
2023/06/08 01:56:49;;;;;;;9.95;7.60;;;;;;;;;;6183697;23;20055;-89
2023/06/08 01:59:15;;;;;;;9.68;7.85;;;;;;;;;;6191419;23;20024;-88
2023/06/08 02:01:41;;;;;;;10.38;7.85;;;;;;;;;;6217141;23;20000;-90
2023/06/08 02:04:08;;;;;;;7.97;7.10;;;;;;;;;;6188338;23;20029;-89
2023/06/08 02:06:35;;;;;;;9.27;7.55;;;;;;;;;;6216458;23;20032;-89
2023/06/08 02:09:01;;;;;;;9.75;8.00;;;;;;;;;;6189044;23;20260;-90
2023/06/08 02:11:27;;;;;;;11.23;8.20;;;;;;;;;;6185624;23;20084;-90
2023/06/08 02:13:53;;;;;;;11.38;8.23;;;;;;;;;;6190099;23;20103;-90
2023/06/08 02:16:19;;;;;;;9.23;7.97;;;;;;;;;;6212683;23;19997;-86
2023/06/08 02:18:45;;;;;;;9.32;7.18;;;;;;;;;;6186873;23;20059;-89
2023/06/08 02:21:11;;;;;;;11.65;8.43;;;17.30;99.90;;;;;;6186062;23;20007;-86
2023/06/08 02:23:38;;;;;;;9.80;7.63;;;17.30;99.90;;;;;;6213217;23;20005;-89
2023/06/08 02:26:06;;;;;;;9.30;7.25;;;17.30;99.90;;;;;;6188598;23;20143;-88
2023/06/08 02:28:33;;;;;;;9.27;7.85;;;;;;;;;;6189308;23;20036;-91
2023/06/08 02:31:00;;;;;;;9.93;7.55;;;;;;;;;;6186691;23;20009;-89
2023/06/08 02:33:27;;;;;;;9.98;7.30;;;;;;;;;;6187707;23;20088;-88
2023/06/08 02:35:53;;;;;;;9.63;7.97;;;;;;;;;;6215104;23;20062;-88
2023/06/08 02:38:19;;;;;;;9.35;7.57;;;;;;;;;;6215159;23;20001;-88
2023/06/08 02:40:45;;;;;;;10.23;7.40;;;;;;;;;;6188400;23;20028;-90
2023/06/08 02:43:11;;;;;;;10.10;7.75;;;;;;;;;;6189677;23;20074;-89
2023/06/08 02:45:41;;;;;;;9.10;7.50;;;;;;;;;;6190419;23;20012;-88
2023/06/08 02:48:07;;;;;;;9.30;7.50;;;;;;;;;;6190249;23;20433;-87
2023/06/08 02:50:33;;;;;;;10.23;7.90;;;;;;;;;;6188469;23;20415;-86
2023/06/08 02:52:59;;;;;;;10.90;8.07;;;;;;;;;;6219903;23;20001;-92
2023/06/08 02:55:25;;;;;;;10.43;7.65;;;;;;;;;;6220941;23;20009;-88
2023/06/08 02:57:52;;;;;;;8.90;7.60;;;;;;;;;;6221875;23;20039;-90
2023/06/08 03:00:20;;;;;;;8.77;7.55;;;;;;;;;;6217629;23;20000;-89
2023/06/08 03:02:45;;;;;;;11.65;8.57;;;;;;;;;;6189711;23;20031;-89
2023/06/08 03:05:13;;;;;;;10.13;7.88;;;;;;;;;;6190676;23;19998;-89
2023/06/08 03:07:42;;;;;;;10.25;7.57;;;;;;;;;;6190367;23;20028;-90
2023/06/08 03:10:08;;;;;;;9.13;7.60;;;;;;;;;;6215030;23;20001;-89
2023/06/08 03:12:34;;;;;;;9.77;8.02;;;;;;;;;;6217882;23;20495;-90
2023/06/08 03:15:00;;;;;;;9.48;7.80;;;;;;;;;;6218636;23;20376;-90
2023/06/08 03:17:27;;;;;;;8.57;7.68;;;;;;;;;;6218891;23;20000;-90
2023/06/08 03:19:53;;;;;;;9.48;7.40;;;;;;;;;;6189748;23;20012;-89
2023/06/08 03:22:24;;;;;;;12.52;8.35;;;;;;;;;;6190946;23;20413;-90
2023/06/08 03:24:50;;;;;;;10.35;7.82;;;;;;;;;;6216879;23;20039;-90
2023/06/08 03:27:16;;;;;;;9.60;7.75;;;;;;;;;;6202372;23;20005;-87
2023/06/08 03:29:42;;;;;;;10.68;8.35;;;;;;;;;;6231311;23;20004;-88
2023/06/08 03:32:09;;;;;;;9.18;8.05;;;;;;;;;;6198054;23;20313;-87
2023/06/08 03:34:37;;;;;;;10.23;7.90;;;16.30;99.90;;;;;;6195004;23;20009;-89
2023/06/08 03:37:03;;;;;;;10.98;8.80;;;;;;;;;;6192777;23;20004;-90
2023/06/08 03:39:29;;;;;;;11.23;8.05;;;;;;;;;;6190090;23;20004;-87
2023/06/08 03:41:55;;;;;;;11.68;8.80;;;;;;;;;;6188197;23;20004;-89
2023/06/08 03:44:21;;;;;;;9.27;8.23;;;;;;;;;;6211327;23;20008;-89
2023/06/08 03:46:47;;;;;;;10.10;8.65;;;;;;;;;;6213471;23;20264;-90
2023/06/08 03:49:14;;;;;;;8.80;7.90;;;;;;;;;;6214914;23;20012;-90
2023/06/08 03:51:40;;;;;;;11.25;8.30;;;;;;;;;;6214887;23;20383;-89
2023/06/08 03:54:06;;;;;;;11.50;8.57;;;;;;;;;;6190480;23;20009;-88
2023/06/08 03:56:32;;;;;;;11.68;8.02;;;;;;;;;;6189711;23;20031;-87
2023/06/08 03:58:58;;;;;;;9.43;7.50;;;;;;;;;;6191784;23;20504;-87
2023/06/08 04:01:27;;;;;;;10.50;8.38;;;;;;;;;;6218518;23;20012;-90
2023/06/08 04:03:53;;;;;;;9.93;7.47;;;;;;;;;;6218871;23;20082;-86
2023/06/08 04:06:19;;;;;;;11.55;8.40;;;;;;;;;;6217273;23;20005;-88
2023/06/08 04:08:45;;;;;;;10.60;8.30;;;;;;;;;;6192949;23;20016;-88
2023/06/08 04:11:13;;;;;;;11.90;7.88;;;16.60;99.90;;;;;;6193846;23;20011;-91
2023/06/08 04:13:40;;;;;;;10.23;8.90;;;16.60;99.90;;;;;;6221402;23;20454;-89
2023/06/08 04:16:09;;;;;;;9.13;7.78;;;;;;;;;;6191197;23;20040;-89
2023/06/08 04:18:36;;;;;;;10.43;7.95;;;;;;;;;;6219063;23;20432;-88
2023/06/08 04:21:04;;;;;;;10.85;8.13;;;16.50;99.90;;;;;;6192332;23;20055;-89
2023/06/08 04:23:31;;;;;;;10.18;8.35;;;;;;;;;;6220679;23;20198;-89
2023/06/08 04:25:57;;;;;;;9.45;8.40;;;;;;;;;;6219963;23;20022;-91
2023/06/08 04:28:23;;;;;;;10.57;8.23;;;;;;;;;;6218663;23;20013;-88
2023/06/08 04:30:49;;;;;;;12.82;8.45;;;;;;;;;;6216190;23;20714;-90
2023/06/08 04:33:16;;;;;;;10.38;8.40;;;16.50;99.90;;;;;;6191208;23;20005;-87
2023/06/08 04:35:42;;;;;;;10.95;8.27;;;;;;;;;;6217333;23;20458;-90
2023/06/08 04:38:15;;;;;;;9.60;8.43;;;;;;;;;;6217799;23;19997;-89
2023/06/08 04:40:46;;;;;;;10.23;8.35;;;16.60;99.90;;;;;;6189677;23;20028;-91
2023/06/08 04:43:13;;;;;;;10.35;8.48;;;;;;;;;;6191970;23;20013;-90
2023/06/08 04:45:43;;;;;;;10.45;8.63;;;16.70;99.90;;;;;;6190433;23;20039;-90
2023/06/08 04:48:10;;;;;;;11.25;8.77;;;;;;;;;;6190779;23;20012;-87
2023/06/08 04:50:37;;;;;;;16.42;9.13;;;;;;;;;;6190720;23;20385;-89
2023/06/08 04:53:03;;;;;;;11.27;8.30;;;;;;;;;;6190659;23;20047;-90
2023/06/08 04:55:29;;;;;;;9.55;8.00;;;;;;;;;;6191476;23;20487;-88
2023/06/08 04:57:55;;;;;;;10.30;8.18;;;;;;;;;;6216665;23;20020;-89
2023/06/08 05:00:21;;;;;;;9.70;7.82;;;17.00;99.90;;;;;;6213068;23;20005;-86
2023/06/08 05:02:47;;;;;;;10.75;8.05;;;;;;;;;;6212799;23;20008;-87
2023/06/08 05:05:13;;;;;;;9.77;8.35;;;17.00;99.90;;;;;;6187873;23;20028;-90
2023/06/08 05:07:39;;;;;;;9.48;8.48;;;;;;;;;;6188188;23;20005;-89
2023/06/08 05:10:05;;;;;;;11.43;8.02;;;;;;;;;;6164661;23;20013;-90
2023/06/08 05:12:31;;;;;;;12.60;8.13;;;;;;;;;;6190255;23;20005;-84
2023/06/08 05:14:58;;;;;;;9.90;8.10;;;;;;;;;;6194321;23;20011;-92
2023/06/08 05:17:24;;;;;;;12.63;7.55;;;;;;;;;;6218372;23;20052;-88
2023/06/08 05:19:50;;;;;;;8.80;7.43;;;17.70;99.90;;;;;;6192590;23;20024;-86
2023/06/08 05:22:17;;;;;;;8.60;7.32;;;;;;;;;;6220545;23;20064;-88
2023/06/08 05:24:42;;;;;;;9.23;7.30;;;;;;;;;;6191449;23;20012;-90
2023/06/08 05:27:08;;;;;;;8.90;6.60;;;20.10;99.90;;;;;;6192664;23;20012;-87
2023/06/08 05:29:34;;;;;;;8.18;6.65;;;;;;;;;;6192421;23;20039;-86
2023/06/08 05:32:00;;;;;;;8.45;6.57;;;;;;;;;;6192996;23;20008;-88
2023/06/08 05:34:29;;;;;;;8.55;6.57;;;;;;;;;;6218731;23;20570;-90
2023/06/08 05:36:55;;;;;;;7.93;6.68;;;;;;;;;;6220087;23;20005;-89
2023/06/08 05:39:21;;;;;;;8.65;6.03;;;;;;;;;;6194850;23;20059;-85
2023/06/08 05:41:47;;;;;;;7.88;5.88;;;;;;;;;;6220204;23;20000;-87
2023/06/08 05:44:13;;;;;;;9.45;5.68;;;;;;;;;;6221896;23;20448;-85
2023/06/08 05:46:40;;;;;;;9.00;5.93;;;;;;;;;;6194976;23;20448;-88
2023/06/08 05:49:06;;;;;;;9.88;5.78;;;;;;;;;;6223351;23;20015;-87
2023/06/08 05:51:32;;;;;;;8.65;6.07;;;;;;;;;;6222261;23;20007;-88
2023/06/08 05:53:58;;;;;;;7.43;5.40;;;;;;;;;;6221399;23;20001;-87
2023/06/08 05:56:25;;;;;;;6.90;5.90;;;;;;;;;;6221084;23;20464;-88
2023/06/08 05:58:51;;;;;;;7.32;6.25;;;;;;;;;;6199046;23;20007;-87
2023/06/08 06:01:20;;;;;;;6.32;5.72;;;;;;;;;;6197480;23;20005;-89
2023/06/08 06:03:46;;;;;;;9.40;6.38;;;;;;;;;;6224025;23;20011;-87
2023/06/08 06:06:12;;;;;;;7.05;6.35;;;;;;;;;;6192501;23;20008;-88
2023/06/08 06:08:38;;;;;;;9.20;6.10;;;;;;;;;;6221669;23;20008;-88
2023/06/08 06:11:04;;;;;;;11.65;6.07;;;;;;;;;;6195207;23;20016;-87
2023/06/08 06:13:34;;;;;;;8.05;6.22;;;;;;;;;;6200203;23;20009;-89
2023/06/08 06:16:00;;;;;;;6.45;5.75;;;;;;;;;;6193474;23;20008;-85
2023/06/08 06:18:26;;;;;;;8.07;5.63;;;;;;;;;;6220872;23;20001;-88
2023/06/08 06:20:52;;;;;;;8.13;5.90;;;;;;;;;;6220740;23;20024;-88
2023/06/08 06:23:18;;;;;;;8.00;6.25;;;;;;;;;;6221922;23;20023;-88
2023/06/08 06:25:44;;;;;;;6.78;6.00;;;;;;;;;;6220411;23;20012;-89
2023/06/08 06:28:10;;;;;;;8.75;6.22;;;;;;;;;;6193445;23;20008;-91
2023/06/08 06:30:36;;;;;;;10.70;6.13;;;;;;;;;;6220630;23;20013;-86
2023/06/08 06:33:02;;;;;;;7.22;5.93;;;;;;;;;;6224526;23;20004;-88
2023/06/08 06:35:28;;;;;;;8.13;6.60;;;;;;;;;;6220954;23;20000;-86
2023/06/08 06:37:55;;;;;;;9.77;5.85;;;;;;;;;;6194193;23;20004;-86
2023/06/08 06:40:21;;;;;;;8.30;6.20;;;;;;;;;;6197292;23;20344;-87
2023/06/08 06:42:53;;;;;;;8.40;5.90;;;;;;;;;;6222672;23;19997;-91
2023/06/08 06:45:20;;;;;;;7.13;6.05;;;;;;;;;;6223339;23;20011;-87
2023/06/08 06:47:46;;;;;;;8.63;6.43;;;;;;;;;;6197986;23;20069;-87
2023/06/08 06:50:12;;;;;;;6.63;5.63;;;;;;;;;;6198807;23;20005;-84
2023/06/08 06:52:38;;;;;;;8.55;6.15;;;;;;;;;;6223993;23;20021;-87
2023/06/08 06:55:04;;;;;;;7.80;5.93;;;;;;;;;;6194520;23;20040;-88
2023/06/08 06:57:31;;;;;;;7.80;5.68;;;;;;;;;;6221401;23;20428;-86
2023/06/08 07:00:02;;;;;;;8.90;6.50;;;;;;;;;;6194260;23;20209;-87
2023/06/08 07:02:28;;;;;;;7.63;5.72;;;;;;;;;;6222732;23;19997;-87
2023/06/08 07:04:58;;;;;;;9.45;6.72;;;;;;;;;;6195145;23;20015;-88
2023/06/08 07:07:26;;;;;;;;;;;;;;;;;;6196273;23;20016;-88
2023/06/08 07:09:52;;;;;;;8.27;6.50;;;;;;;;;;6193479;23;19904;-86
2023/06/08 07:12:17;;;;;;;7.00;5.78;;;21.60;99.90;;;;;;6193947;23;20058;-87
2023/06/08 07:14:43;;;;;;;6.53;5.47;;;;;;;;;;6193564;23;20005;-87
2023/06/08 07:17:11;;;;;;;8.88;6.50;;;;;;;;;;6218441;23;20001;-86
2023/06/08 07:19:39;;;;;;;9.48;6.22;;;;;;;;;;6192098;23;20015;-86
2023/06/08 07:22:08;;;;;;;9.90;6.00;;;;;;;;;;6192952;23;20008;-90
2023/06/08 07:24:34;;;;;;;7.00;5.90;;;;;;;;;;6222497;23;20005;-86
2023/06/08 07:27:03;;;;;;;7.72;6.03;;;;;;;;;;6221485;23;20462;-85
2023/06/08 07:29:29;;;;;;;8.85;6.13;;;;;;;;;;6193543;23;20016;-86
2023/06/08 07:31:55;;;;;;;8.23;5.80;;;;;;;;;;6221613;23;20088;-88
2023/06/08 07:34:25;;;;;;;9.45;5.88;;;;;;;;;;6222752;23;20008;-88
2023/06/08 07:36:51;;;;;;;7.43;6.15;;;;;;;;;;6196397;23;20441;-87
2023/06/08 07:39:17;;;;;;;7.40;5.68;;;;;;;;;;6190849;23;20024;-85
2023/06/08 07:41:43;;;;;;;8.98;6.38;;;;;;;;;;6188524;23;20288;-88
2023/06/08 07:44:09;;;;;;;7.40;6.50;;;;;;;;;;6216442;23;20009;-87
2023/06/08 07:46:35;;;;;;;8.73;6.40;;;;;;;;;;6195787;23;20012;-86
2023/06/08 07:49:01;;;;;;;9.93;6.20;;;;;;;;;;6216468;23;20016;-87
2023/06/08 07:51:27;;;;;;;9.68;6.53;;;;;;;;;;6217496;23;20000;-85
2023/06/08 07:53:53;;;;;;;10.40;6.43;;;;;;;;;;6194354;23;20011;-86
2023/06/08 07:56:19;;;;;;;8.57;5.90;;;;;;;;;;6220988;23;20011;-87
2023/06/08 07:58:45;;;;;;;8.32;6.22;;;;;;;;;;6194136;23;20045;-85
2023/06/08 08:01:15;;;;;;;8.73;6.40;;;;;;;;;;6217377;23;20067;-86
2023/06/08 08:03:41;;;;;;;7.40;6.57;;;;;;;;;;6213396;23;20004;-87
2023/06/08 08:06:06;;;;;;;9.05;6.45;;;22.70;99.60;;;;;;6218740;23;20116;-86
2023/06/08 08:08:32;;;;;;;9.23;6.53;;;;;;;;;;6192123;23;20008;-86
2023/06/08 08:10:58;;;;;;;8.40;6.97;;;;;;;;;;6199329;23;20009;-89
2023/06/08 08:13:24;;;;;;;9.73;7.35;;;;;;;;;;6226529;23;20016;-89
2023/06/08 08:15:50;;;;;;;7.18;6.10;;;;;;;;;;6224972;23;19997;-85
2023/06/08 08:18:17;;;;;;;9.52;6.30;;;;;;;;;;6192767;23;20427;-88
2023/06/08 08:20:43;;;;;;;7.32;6.55;;;;;;;;;;6220227;23;19996;-86
2023/06/08 08:23:09;;;;;;;9.57;6.18;;;;;;;;;;6198145;23;20018;-89
2023/06/08 08:25:35;;;;;;;7.07;6.38;;;;;;;;;;6222928;23;20515;-86
2023/06/08 08:28:01;;;;;;;7.55;6.10;;;;;;;;;;6192703;23;20040;-89
2023/06/08 08:30:27;;;;;;;6.90;6.20;;;;;;;;;;6192346;23;20000;-89
2023/06/08 08:32:53;;;;;;;10.75;6.38;;;;;;;;;;6219120;23;20000;-86
2023/06/08 08:35:22;;;;;;;8.27;6.13;;;;;;;;;;6220222;23;20112;-90
2023/06/08 08:37:48;;;;;;;8.93;5.90;;;;;;;;;;6218887;23;19997;-87
2023/06/08 08:40:14;;;;;;;7.10;6.05;;;;;;;;;;6193632;23;19997;-88
2023/06/08 08:42:48;;;;;;;8.05;6.43;;;;;;;;;;6193972;23;20011;-87
2023/06/08 08:45:16;;;;;;;7.22;5.85;;;;;;;;;;6169712;23;20424;-88
2023/06/08 08:47:43;;;;;;;8.43;6.30;;;;;;;;;;6220980;23;20012;-87
2023/06/08 08:50:16;;;;;;;7.82;5.95;;;24.00;96.40;;;;;;6195877;23;20008;-90
2023/06/08 08:52:45;;;;;;;8.02;5.88;;;24.00;96.50;;;;;;6195275;23;20012;-89
2023/06/08 08:55:11;;;;;;;7.00;5.95;;;;;;;;;;6221819;23;20008;-86
2023/06/08 08:57:37;;;;;;;8.02;5.97;;;;;;;;;;6218089;23;20050;-90
2023/06/08 09:00:06;;;;;;;8.30;6.05;;;24.20;95.90;;;;;;6189598;23;20036;-87
2023/06/08 09:02:36;;;;;;;8.15;5.88;;;;;;;;;;6222137;23;20413;-87
2023/06/08 09:05:05;;;;;;;8.18;5.88;;;;;;;;;;6219962;23;20011;-88
2023/06/08 09:07:31;;;;;;;7.18;5.82;;;;;;;;;;6219059;23;20355;-89
2023/06/08 09:10:29;;;;;;;8.25;6.03;;;24.40;95.30;;;;;;6193873;23;20004;-90
2023/06/08 09:12:56;;;;;;;8.15;6.10;;;;;;;;;;6140973;23;20031;-87
2023/06/08 09:15:37;;;;;;;7.32;5.70;;;24.60;94.80;;;;;;6198739;23;20135;-91
2023/06/08 09:18:15;;;;;;;7.15;6.07;;;24.90;94.80;;;;;;6217946;23;20024;-89
2023/06/08 09:20:41;;;;;;;6.97;5.32;;;;;;;;;;6192915;23;20020;-90
2023/06/08 09:23:25;;;;;;;6.20;5.60;;;25.10;94.40;;;;;;6196233;23;20043;-88
2023/06/08 09:25:52;;;;;;;8.93;6.10;;;;;;;;;;6193920;23;20440;-89
2023/06/08 09:28:31;;;;;;;6.80;6.10;;;25.20;94.40;;;;;;6223217;23;19997;-88
2023/06/08 09:30:57;;;;;;;;;;;25.00;93.90;;;;;;6195264;23;20007;-87
2023/06/08 09:33:32;;;;;;;6.90;5.18;;;25.50;93.40;;;;;;6220056;23;19903;-91
2023/06/08 09:35:58;;;;;;;7.72;5.38;;;;;;;;;;6195261;23;20440;-88
2023/06/08 09:38:26;;;;;;;6.88;5.03;;;25.80;92.00;;;;;;6194038;23;20000;-88
2023/06/08 09:41:13;;;;;;;5.95;4.95;;;25.90;91.30;;;;;;6222363;23;20022;-89
2023/06/08 09:43:43;;;;;;;6.97;4.47;;;25.90;90.70;;;;;;6222364;23;20008;-90
2023/06/08 09:46:11;;;;;;;6.05;4.90;;;;;;;;;;6222259;23;20008;-89
2023/06/08 09:48:39;;;;;;;6.30;5.13;;;;;;;;;;6221880;23;20008;-88
2023/06/08 09:51:05;;;;;;;6.00;5.40;;;;;;;;;;6218103;23;20070;-90
2023/06/08 09:53:33;;;;;;;7.55;4.80;;;26.00;90.40;;;;;;6222181;23;20012;-89
2023/06/08 09:56:00;;;;;;;7.18;4.53;;;;;;;;;;6195792;23;20024;-90
2023/06/08 09:58:27;;;;;;;6.97;4.65;;;;;;;;;;6189893;23;20437;-90
2023/06/08 10:00:56;;;;;;;5.70;4.93;;;;;;;;;;6214634;23;20067;-91
2023/06/08 10:03:30;;;;;;;6.55;5.30;;;26.10;90.70;;;;;;6218943;23;20008;-89
2023/06/08 10:05:57;;;;;;;6.57;4.90;;;26.30;90.60;;;;;;6220060;23;20009;-89
2023/06/08 10:08:26;;;;;;;5.45;4.70;;;26.30;89.50;;;;;;6192477;23;20028;-87
2023/06/08 10:10:52;;;;;;;6.72;4.70;;;;;;;;;;6193158;23;20032;-88
2023/06/08 10:13:18;;;;;;;6.07;4.53;;;;;;;;;;6218447;23;20005;-87
2023/06/08 10:15:44;;;;;;;5.53;4.63;;;;;;;;;;6192875;23;20004;-89
2023/06/08 10:18:10;;;;;;;5.70;5.10;;;;;;;;;;6217666;23;20027;-86
2023/06/08 10:20:37;;;;;;;9.45;4.90;;;;;;;;;;6190455;23;20036;-86
2023/06/08 10:23:04;;;;;;;5.82;5.15;;;;;;;;;;6194855;23;20340;-87
2023/06/08 10:25:30;;;;;;;6.35;4.90;;;;;;;;;;6191230;23;20000;-85
2023/06/08 10:28:04;;;;;;;5.57;4.97;;;26.00;90.10;;;;;;6195800;23;19996;-83
2023/06/08 10:30:33;;;;;;;5.97;4.78;;;;;;;;;;6222510;23;19997;-80
2023/06/08 10:33:15;;;;;;;5.53;4.30;;;26.20;89.60;;;;;;6225458;23;19997;-82
2023/06/08 10:35:41;;;;;;;5.85;4.50;;;;;;;;;;6173778;23;20020;-81
2023/06/08 10:38:15;;;;;;;6.63;5.00;;;26.80;87.60;;;;;;6224694;23;20007;-81
2023/06/08 10:40:53;;;;;;;6.32;4.43;;;;;;;;;;6199322;23;20008;-83
2023/06/08 10:43:26;;;;;;;5.30;4.65;;;27.20;86.40;;;;;;6199540;23;20017;-80
2023/06/08 10:45:52;;;;;;;6.65;4.10;;;;;;;;;;6227041;23;20008;-80
2023/06/08 10:48:20;;;;;;;5.95;4.32;;;27.40;84.80;;;;;;6225739;23;20016;-82
2023/06/08 10:50:48;;;;;;;6.22;4.50;;;27.30;84.70;;;;;;6201964;23;20001;-81
2023/06/08 10:53:20;;;;;;;5.65;4.63;;;27.50;85.40;;;;;;6230678;23;20008;-87
2023/06/08 10:55:50;;;;;;;5.60;4.40;;;27.70;84.20;;;;;;6206214;23;20000;-82
2023/06/08 10:58:20;;;;;;;5.85;4.68;;;27.60;84.30;;;;;;6235267;23;20000;-87
2023/06/08 11:00:52;;;;;;;6.00;4.47;;;27.40;84.00;;;;;;6181608;23;20038;-82
2023/06/08 11:03:21;;;;;;;7.97;4.68;;;27.20;84.20;;;;;;6181383;23;20039;-86
2023/06/08 11:05:50;;;;;;;5.35;4.63;;;27.90;85.90;;;;;;6231006;23;20001;-82
2023/06/08 11:08:16;;;;;;;9.38;4.53;;;;;;;;;;6229083;23;20071;-84
2023/06/08 11:10:44;;;;;;;4.57;3.60;;;27.10;83.10;;;;;;6200131;23;20039;-83
2023/06/08 11:13:11;;;;;;;5.20;4.07;;;27.40;81.70;;;;;;6171388;23;20012;-80
2023/06/08 11:15:41;;;;;;;4.18;3.75;;;27.60;79.60;;;;;;6231069;23;20011;-83
2023/06/08 11:18:09;;;;;;;4.63;3.47;;;27.70;79.50;;;;;;6206963;23;20012;-84
2023/06/08 11:20:39;;;;;;;4.85;3.80;;;27.70;79.70;;;;;;6231693;23;20005;-86
2023/06/08 11:23:12;;;;;;;6.68;3.75;;;27.80;78.60;;;;;;6205181;23;20011;-83
2023/06/08 11:25:39;;;;;;;5.50;3.50;;;;;;;;;;6205636;23;20008;-83
2023/06/08 11:28:07;;;;;;;4.65;3.55;;;28.00;77.60;;;;;;6203694;23;20243;-86
2023/06/08 11:30:35;;;;;;;5.55;3.80;;;28.20;77.70;;;;;;6202455;23;20000;-83
2023/06/08 11:33:01;;;;;;;4.85;3.80;;;;;;;;;;6226834;23;20071;-82
2023/06/08 11:35:27;;;;;;;4.05;3.50;;;;;;;;;;6227230;23;20035;-84
2023/06/08 11:37:59;;;;;;;4.18;3.55;;;27.70;77.60;;;;;;6223727;23;20032;-81
2023/06/08 11:40:25;;;;;;;5.38;3.78;;;;;;;;;;6220098;23;20667;-82
2023/06/08 11:42:52;;;;;;;4.30;3.25;;;;;;;;;;6221565;23;20004;-86
2023/06/08 11:45:18;;;;;;;6.20;3.25;;;;;;;;;;6197106;23;20108;-85
2023/06/08 11:47:44;;;;;;;5.28;3.03;;;28.10;73.10;;;;;;6221813;23;20009;-82
2023/06/08 11:50:12;;;;;;;6.72;3.88;;;28.10;74.30;;;;;;6222340;23;20058;-85
2023/06/08 11:52:44;;;;;;;4.68;3.47;;;;;;;;;;6221557;23;20000;-83
2023/06/08 11:55:12;;;;;;;5.68;3.92;;;28.50;73.60;;;;;;6196199;23;20495;-84
2023/06/08 11:57:40;;;;;;;5.85;3.95;;;28.30;73.60;;;;;;6196083;23;20060;-85
2023/06/08 12:00:14;;;;;;;4.65;3.30;;;27.70;73.50;;;;;;6194042;23;20012;-83
2023/06/08 12:02:40;;;;;;;5.93;3.55;;;;;;;;;;6190520;23;20426;-81
2023/06/08 12:05:12;;;;;;;5.68;3.70;;;27.30;74.10;;;;;;6193035;23;20091;-80
2023/06/08 12:07:38;;;;;;;5.82;3.75;;;;;;;;;;6190932;23;19997;-85
2023/06/08 12:10:05;;;;;;;4.60;3.65;;;27.10;74.60;;;;;;6217006;23;20137;-81
2023/06/08 12:12:32;;;;;;;4.60;3.45;;;27.00;75.20;;;;;;6190222;23;20001;-80
2023/06/08 12:14:58;;;;;;;5.70;3.88;;;;;;;;;;6191795;23;20005;-81
2023/06/08 12:17:28;;;;;;;5.25;4.05;;;27.50;73.30;;;;;;6219921;23;20079;-82
2023/06/08 12:19:54;;;;;;;4.85;3.50;;;27.60;72.40;;;;;;6219277;23;20001;-82
2023/06/08 12:22:21;;;;;;;5.07;3.60;;;;;;;;;;6218716;23;20004;-82
2023/06/08 12:24:47;;;;;;;5.43;3.70;;;;;;;;;;6223840;23;20223;-84
2023/06/08 12:27:14;;;;;;;4.80;3.83;;;;;;;;;;6221282;23;20016;-83
2023/06/08 12:29:41;;;;;;;6.00;4.25;;;28.20;71.00;;;;;;6194675;23;20008;-82
2023/06/08 12:32:07;;;;;;;6.15;3.65;;;;;;;;;;6222164;23;20059;-82
2023/06/08 12:34:33;;;;;;;7.72;3.88;;;;;;;;;;6196530;23;20100;-85
2023/06/08 12:36:59;;;;;;;4.97;3.80;;;;;;;;;;6225616;23;20000;-82
2023/06/08 12:39:26;;;;;;;4.93;3.67;;;;;;;;;;6196354;23;20349;-83
2023/06/08 12:41:52;;;;;;;5.40;4.03;;;;;;;;;;6225584;23;20097;-83
2023/06/08 12:44:18;;;;;;;5.15;3.90;;;;;;;;;;6200642;23;20452;-85
2023/06/08 12:46:44;;;;;;;5.70;4.40;;;;;;;;;;6227420;23;20421;-85
2023/06/08 12:49:10;;;;;;;6.05;4.07;;;;;;;;;;6225236;23;20011;-83
2023/06/08 12:51:37;;;;;;;4.80;3.95;;;;;;;;;;6220987;23;20243;-81
2023/06/08 12:54:03;;;;;;;4.50;3.40;;;;;;;;;;6220615;23;20008;-83
2023/06/08 12:56:29;;;;;;;5.43;3.60;;;;;;;;;;6194711;23;20059;-83
2023/06/08 12:58:55;;;;;;;6.47;4.13;;;;;;;;;;6194506;23;20084;-80
2023/06/08 13:01:22;;;;;;;5.95;3.65;;;;;;;;;;6218724;23;20088;-80
2023/06/08 13:03:48;;;;;;;4.50;3.72;;;;;;;;;;6216997;23;20004;-82
2023/06/08 13:06:14;;;;;;;4.80;4.00;;;;;;;;;;6219441;23;20032;-81
2023/06/08 13:08:40;;;;;;;4.85;3.78;;;;;;;;;;6217554;23;20008;-84
2023/06/08 13:11:06;;;;;;;5.45;4.28;;;;;;;;;;6217785;23;20083;-83
2023/06/08 13:13:32;;;;;;;5.72;4.05;;;;;;;;;;6217904;23;20008;-85
2023/06/08 13:16:01;;;;;;;6.50;3.90;;;28.00;71.50;;;;;;6220743;23;20009;-84
2023/06/08 13:18:27;;;;;;;6.45;4.20;;;;;;;;;;6197053;23;20001;-83
2023/06/08 13:20:56;;;;;;;7.70;6.22;;;;;;;;;;6195932;23;20012;-83
2023/06/08 13:23:24;;;;;;;7.88;4.85;;;;;;;;;;6197207;23;20031;-82
2023/06/08 13:25:50;;;;;;;5.32;3.78;;;;;;;;;;6196533;23;20011;-84
2023/06/08 13:28:16;;;;;;;4.43;3.60;;;;;;;;;;6196303;23;20015;-81
2023/06/08 13:30:42;;;;;;;4.10;3.47;;;;;;;;;;6195673;23;20016;-82
2023/06/08 13:33:08;;;;;;;5.75;3.90;;;;;;;;;;6194245;23;20494;-84
2023/06/08 13:35:34;;;;;;;5.70;3.50;;;;;;;;;;6224106;23;20008;-83
2023/06/08 13:38:00;;;;;;;6.25;3.80;;;;;;;;;;6224924;23;20057;-83
2023/06/08 13:40:31;;;;;;;6.70;4.20;;;;;;;;;;6221950;23;19997;-81
2023/06/08 13:42:58;;;;;;;4.93;3.83;;;;;;;;;;6224284;23;20482;-84
2023/06/08 13:45:24;;;;;;;4.88;3.30;;;;;;;;;;6221500;23;20001;-84
2023/06/08 13:47:50;;;;;;;7.13;3.40;;;;;;;;;;6196180;23;20005;-81
2023/06/08 13:50:16;;;;;;;4.85;3.60;;;;;;;;;;6224515;23;20001;-81
2023/06/08 13:52:42;;;;;;;6.82;3.50;;;;;;;;;;6190609;23;20179;-80
2023/06/08 13:55:08;;;;;;;5.50;3.30;;;29.10;65.00;;;;;;6219693;23;20424;-83
2023/06/08 13:57:34;;;;;;;5.30;3.60;;;;;;;;;;6217979;23;20008;-81
2023/06/08 14:00:00;;;;;;;4.55;3.53;;;;;;;;;;6189573;23;20012;-80
2023/06/08 14:02:26;;;;;;;5.30;3.40;;;;;;;;;;6192763;23;20004;-80
2023/06/08 14:04:52;;;;;;;4.88;3.60;;;;;;;;;;6165641;23;20024;-81
2023/06/08 14:07:18;;;;;;;6.90;3.85;;;;;;;;;;6219075;23;20009;-83
2023/06/08 14:09:45;;;;;;;4.68;3.38;;;;;;;;;;6221008;23;20341;-80
2023/06/08 14:12:11;;;;;;;6.10;3.80;;;;;;;;;;6198035;23;20015;-80
2023/06/08 14:14:37;;;;;;;6.93;3.33;;;;;;;;;;6200347;23;20013;-81
2023/06/08 14:17:03;;;;;;;4.30;3.63;;;;;;;;;;6203450;23;20001;-83
2023/06/08 14:19:29;;;;;;;5.28;3.75;;;;;;;;;;6229651;23;19993;-82
2023/06/08 14:21:56;;;;;;;5.65;4.47;;;;;;;;;;6196702;23;20032;-83
2023/06/08 14:24:22;;;;;;;5.25;4.10;;;;;;;;;;6225560;23;20001;-82
2023/06/08 14:26:48;;;;;;;4.18;3.55;;;;;;;;;;6199172;23;20043;-82
2023/06/08 14:29:14;;;;;;;4.40;3.30;;;;;;;;;;6193943;23;20008;-83
2023/06/08 14:31:40;;;;;;;3.65;3.20;;;;;;;;;;6194061;23;20442;-83
2023/06/08 14:34:05;;;;;;;5.90;3.55;;;;;;;;;;6196190;23;20008;-83
2023/06/08 14:36:31;;;;;;;4.95;3.47;;;;;;;;;;6223521;23;19997;-81
2023/06/08 14:38:57;;;;;;;4.80;3.30;;;;;;;;;;6199321;23;20408;-81
2023/06/08 14:41:24;;;;;;;4.50;3.20;;;;;;;;;;6195411;23;20086;-82
2023/06/08 14:43:51;;;;;;;6.90;3.50;;;;;;;;;;6194297;23;20012;-81
2023/06/08 14:46:17;;;;;;;4.40;3.50;;;27.80;63.80;;;;;;6194133;23;20041;-84
2023/06/08 14:48:43;;;;;;;5.55;3.80;;;;;;;;;;6194420;23;20009;-79
2023/06/08 14:51:09;;;;;;;6.10;3.40;;;;;;;;;;6191123;23;20005;-81
2023/06/08 14:53:35;;;;;;;8.23;5.32;;;;;;;;;;6194302;23;20062;-82
2023/06/08 14:56:01;;;;;;;4.68;3.38;;;27.80;64.40;;;;;;6168990;23;20009;-82
2023/06/08 14:58:27;;;;;;;5.15;4.22;;;;;;;;;;6193507;23;20512;-83
2023/06/08 15:00:53;;;;;;;5.47;3.50;;;;;;;;;;6190913;23;20333;-81
2023/06/08 15:03:19;;;;;;;5.63;3.53;;;;;;;;;;6193660;23;20017;-80
2023/06/08 15:05:46;;;;;;;5.78;4.15;;;;;;;;;;6221947;23;20004;-83
2023/06/08 15:08:12;;;;;;;5.32;3.53;;;;;;;;;;6192518;23;20035;-82
2023/06/08 15:10:38;;;;;;;5.53;3.15;;;;;;;;;;6192357;23;20028;-82
2023/06/08 15:13:04;;;;;;;11.95;8.13;;;;;;;;;;6195597;23;20427;-84
2023/06/08 15:15:30;;;;;;;8.18;6.60;;;;;;;;;;6194547;23;20064;-84